createdAt,value
2024-01-30T00:00:56.551Z,10.50
2024-01-30T00:03:25.086Z,10.47
2024-01-30T00:05:55.577Z,10.33
2024-01-30T00:08:25.401Z,10.47
2024-01-30T00:10:53.920Z,11.57
2024-01-30T00:13:22.527Z,10.40
2024-01-30T00:15:51.277Z,10.80
2024-01-30T00:18:21.219Z,10.70
2024-01-30T00:20:49.695Z,11.47
2024-01-30T00:23:18.155Z,10.53
2024-01-30T00:25:46.642Z,10.07
2024-01-30T00:28:15.144Z,10.47
2024-01-30T00:30:43.702Z,10.10
2024-01-30T00:33:12.342Z,9.60
2024-01-30T00:35:42.236Z,9.73
2024-01-30T00:38:10.772Z,9.63
2024-01-30T00:40:39.246Z,9.60
2024-01-30T00:43:07.813Z,10.77
2024-01-30T00:45:36.913Z,8.80
2024-01-30T00:48:06.262Z,9.50
2024-01-30T00:50:34.880Z,10.33
2024-01-30T00:53:05.096Z,10.33
2024-01-30T00:55:33.560Z,10.40
2024-01-30T00:58:02.080Z,10.10
2024-01-30T01:00:30.677Z,10.90
2024-01-30T01:02:59.236Z,10.80
2024-01-30T01:05:28.011Z,10.33
2024-01-30T01:07:56.487Z,10.87
2024-01-30T01:10:26.449Z,10.20
2024-01-30T01:12:55.023Z,10.97
2024-01-30T01:15:23.508Z,10.03
2024-01-30T01:17:52.043Z,10.13
2024-01-30T01:20:20.561Z,12.00
2024-01-30T01:22:49.028Z,10.57
2024-01-30T01:25:17.984Z,11.47
2024-01-30T01:27:52.730Z,11.30
2024-01-30T01:30:22.915Z,11.50
2024-01-30T01:32:56.213Z,10.77
2024-01-30T01:35:25.709Z,10.33
2024-01-30T01:37:56.067Z,10.87
2024-01-30T01:40:26.105Z,11.33
2024-01-30T01:42:56.844Z,10.60
2024-01-30T01:45:25.483Z,10.97
2024-01-30T01:47:54.824Z,9.80
2024-01-30T01:50:24.185Z,10.13
2024-01-30T01:52:53.895Z,11.07
2024-01-30T01:55:25.931Z,11.10
2024-01-30T01:57:56.583Z,10.07
2024-01-30T02:00:25.680Z,10.50
2024-01-30T02:02:56.472Z,10.50
2024-01-30T02:05:26.004Z,10.53
2024-01-30T02:07:54.965Z,9.87
2024-01-30T02:10:23.636Z,9.93
2024-01-30T02:12:52.365Z,10.67
2024-01-30T02:15:22.400Z,10.77
2024-01-30T02:17:50.908Z,10.43
2024-01-30T02:20:19.484Z,9.97
2024-01-30T02:22:50.384Z,10.57
2024-01-30T02:25:19.007Z,10.27
2024-01-30T02:27:47.555Z,10.17
2024-01-30T02:30:16.278Z,10.10
2024-01-30T02:32:44.780Z,10.70
2024-01-30T02:35:13.325Z,10.67
2024-01-30T02:37:41.864Z,10.37
2024-01-30T02:40:12.283Z,10.47
2024-01-30T02:42:41.325Z,11.10
2024-01-30T02:45:11.405Z,10.40
2024-01-30T02:47:40.470Z,9.97
2024-01-30T02:50:10.008Z,11.17
2024-01-30T02:52:38.731Z,10.17
2024-01-30T02:55:08.095Z,10.63
2024-01-30T02:57:38.318Z,11.00
2024-01-30T03:00:10.437Z,10.40
2024-01-30T03:02:39.144Z,10.10
2024-01-30T03:05:10.154Z,10.93
2024-01-30T03:07:38.780Z,10.33
2024-01-30T03:10:08.110Z,10.43
2024-01-30T03:12:38.020Z,10.63
2024-01-30T03:15:07.054Z,10.57
2024-01-30T03:17:35.583Z,10.47
2024-01-30T03:20:04.976Z,10.43
2024-01-30T03:22:33.532Z,11.10
2024-01-30T03:25:02.076Z,10.93
2024-01-30T03:27:30.883Z,10.87
2024-01-30T03:30:00.741Z,10.63
2024-01-30T03:32:29.521Z,10.63
2024-01-30T03:34:59.197Z,10.73
2024-01-30T03:37:27.895Z,11.33
2024-01-30T03:39:56.492Z,10.97
2024-01-30T03:42:26.144Z,11.50
2024-01-30T03:44:56.029Z,11.20
2024-01-30T03:47:25.895Z,11.67
2024-01-30T03:49:54.421Z,11.97
2024-01-30T03:52:23.053Z,11.77
2024-01-30T03:54:51.725Z,10.40
2024-01-30T03:57:20.242Z,11.07
2024-01-30T03:59:48.707Z,11.73
2024-01-30T04:02:17.282Z,11.77
2024-01-30T04:04:47.825Z,11.50
2024-01-30T04:07:16.427Z,11.10
2024-01-30T04:09:45.093Z,10.30
2024-01-30T04:12:13.597Z,11.30
2024-01-30T04:14:42.461Z,11.13
2024-01-30T04:17:10.962Z,11.17
2024-01-30T04:19:40.679Z,11.10
2024-01-30T04:22:10.743Z,10.97
2024-01-30T04:24:39.328Z,11.17
2024-01-30T04:27:07.935Z,10.67
2024-01-30T04:29:36.394Z,10.40
2024-01-30T04:32:05.135Z,11.13
2024-01-30T04:34:33.769Z,11.13
2024-01-30T04:37:02.382Z,10.13
2024-01-30T04:39:32.238Z,10.90
2024-01-30T04:42:00.707Z,11.03
2024-01-30T04:44:29.373Z,10.47
2024-01-30T04:47:00.128Z,10.50
2024-01-30T04:49:28.766Z,10.60
2024-01-30T04:51:57.712Z,10.70
2024-01-30T04:54:26.848Z,10.63
2024-01-30T04:56:56.684Z,10.90
2024-01-30T04:59:25.179Z,10.10
2024-01-30T05:01:53.973Z,10.60
2024-01-30T05:04:23.178Z,9.83
2024-01-30T05:06:51.825Z,10.87
2024-01-30T05:09:21.242Z,10.53
2024-01-30T05:11:49.915Z,10.70
2024-01-30T05:14:20.006Z,10.17
2024-01-30T05:16:48.730Z,10.17
2024-01-30T05:19:18.394Z,10.00
2024-01-30T05:21:46.958Z,10.70
2024-01-30T05:24:15.467Z,10.03
2024-01-30T05:26:43.998Z,10.00
2024-01-30T05:29:12.457Z,10.40
2024-01-30T05:31:42.306Z,9.70
2024-01-30T05:34:10.914Z,10.00
2024-01-30T05:36:39.460Z,9.60
2024-01-30T05:39:09.319Z,9.70
2024-01-30T05:41:37.955Z,9.57
2024-01-30T05:44:06.894Z,10.40
2024-01-30T05:46:37.499Z,9.60
2024-01-30T05:49:07.423Z,9.63
2024-01-30T05:51:35.973Z,10.27
2024-01-30T05:54:05.558Z,9.93
2024-01-30T05:56:34.035Z,9.60
2024-01-30T05:59:02.518Z,10.07
2024-01-30T06:01:31.353Z,9.93
2024-01-30T06:03:59.916Z,9.53
2024-01-30T06:06:30.289Z,10.47
2024-01-30T06:08:58.795Z,10.93
2024-01-30T06:11:27.254Z,10.10
2024-01-30T06:13:55.772Z,10.80
2024-01-30T06:16:24.396Z,10.10
2024-01-30T06:18:52.916Z,10.37
2024-01-30T06:21:21.432Z,10.70
2024-01-30T06:23:51.281Z,11.80
2024-01-30T06:26:19.800Z,11.40
2024-01-30T06:28:48.255Z,10.93
2024-01-30T06:31:16.881Z,10.97
2024-01-30T06:33:45.509Z,11.77
2024-01-30T06:36:14.044Z,11.63
2024-01-30T06:38:42.620Z,11.73
2024-01-30T06:41:12.477Z,11.67
2024-01-30T06:43:40.946Z,12.37
2024-01-30T06:46:09.494Z,11.80
2024-01-30T06:48:38.183Z,11.23
2024-01-30T06:51:06.691Z,11.80
2024-01-30T06:53:35.253Z,11.43
2024-01-30T06:56:03.890Z,11.60
2024-01-30T06:58:34.156Z,11.00
2024-01-30T07:01:03.178Z,11.60
2024-01-30T07:03:31.752Z,11.87
2024-01-30T07:06:00.767Z,11.43
2024-01-30T07:08:29.262Z,11.10
2024-01-30T07:11:00.944Z,11.17
2024-01-30T07:13:30.519Z,12.50
2024-01-30T07:16:00.754Z,12.60
2024-01-30T07:18:29.284Z,11.37
2024-01-30T07:20:57.846Z,11.57
2024-01-30T07:23:26.354Z,11.23
2024-01-30T07:25:54.830Z,11.77
2024-01-30T07:28:23.477Z,11.07
2024-01-30T07:30:52.069Z,10.47
2024-01-30T07:33:21.957Z,11.00
2024-01-30T07:35:50.628Z,10.40
2024-01-30T07:38:19.141Z,10.50
2024-01-30T07:40:48.100Z,9.97
2024-01-30T07:43:16.611Z,11.37
2024-01-30T07:45:45.144Z,10.90
2024-01-30T07:48:13.892Z,10.67
2024-01-30T07:50:43.933Z,10.63
2024-01-30T07:53:12.439Z,11.90
2024-01-30T07:55:40.907Z,10.97
2024-01-30T07:58:09.442Z,10.40
2024-01-30T08:00:38.438Z,11.70
2024-01-30T08:03:07.240Z,10.37
2024-01-30T08:05:35.903Z,10.50
2024-01-30T08:08:06.228Z,11.27
2024-01-30T08:10:34.784Z,10.73
2024-01-30T08:13:03.438Z,11.37
2024-01-30T08:15:31.955Z,11.07
2024-01-30T08:18:00.515Z,10.80
2024-01-30T08:20:29.051Z,12.07
2024-01-30T08:22:57.557Z,11.63
2024-01-30T08:25:27.486Z,11.57
2024-01-30T08:27:56.138Z,11.70
2024-01-30T08:30:24.781Z,11.70
2024-01-30T08:32:53.284Z,12.27
2024-01-30T08:35:22.013Z,13.37
2024-01-30T08:37:50.567Z,14.00
2024-01-30T08:40:19.437Z,15.70
2024-01-30T08:42:49.315Z,15.20
2024-01-30T08:45:17.914Z,14.33
2024-01-30T08:47:46.582Z,11.87
2024-01-30T08:50:15.242Z,12.23
2024-01-30T08:52:44.721Z,10.83
2024-01-30T08:55:14.463Z,11.27
2024-01-30T08:57:43.121Z,11.57
2024-01-30T09:00:14.470Z,11.70
2024-01-30T09:02:43.285Z,11.37
2024-01-30T09:05:12.368Z,12.10
2024-01-30T09:07:41.007Z,11.73
2024-01-30T09:10:12.319Z,12.47
2024-01-30T09:12:42.570Z,12.00
2024-01-30T09:15:13.394Z,11.27
2024-01-30T09:17:42.005Z,11.23
2024-01-30T09:20:11.659Z,10.70
2024-01-30T09:22:40.353Z,11.00
2024-01-30T09:25:09.107Z,11.67
2024-01-30T09:27:37.604Z,11.00
2024-01-30T09:30:07.109Z,11.17
2024-01-30T09:32:36.979Z,11.03
2024-01-30T09:35:06.044Z,11.37
2024-01-30T09:37:34.756Z,10.57
2024-01-30T09:40:05.778Z,11.90
2024-01-30T09:42:37.679Z,10.53
2024-01-30T09:45:07.615Z,10.70
2024-01-30T09:47:42.925Z,11.90
2024-01-30T09:50:13.027Z,10.70
2024-01-30T09:52:41.874Z,10.40
2024-01-30T09:55:11.321Z,11.50
2024-01-30T09:57:40.212Z,10.03
2024-01-30T10:00:10.301Z,10.87
2024-01-30T10:02:40.541Z,10.63
2024-01-30T10:05:10.187Z,10.53
2024-01-30T10:07:39.020Z,11.50
2024-01-30T10:10:08.832Z,11.23
2024-01-30T10:12:37.414Z,10.50
2024-01-30T10:15:09.336Z,10.23
2024-01-30T10:17:41.893Z,10.90
2024-01-30T10:20:11.934Z,9.83
2024-01-30T10:22:41.856Z,11.37
2024-01-30T10:25:11.923Z,10.13
2024-01-30T10:27:42.535Z,10.10
2024-01-30T10:30:11.563Z,10.60
2024-01-30T10:32:40.125Z,11.57
2024-01-30T10:35:10.378Z,11.43
2024-01-30T10:37:39.146Z,11.43
2024-01-30T10:40:10.527Z,11.57
2024-01-30T10:42:41.232Z,10.23
2024-01-30T10:45:10.772Z,10.50
2024-01-30T10:47:41.456Z,10.47
2024-01-30T10:50:13.481Z,9.87
2024-01-30T10:52:43.277Z,10.37
2024-01-30T10:55:12.171Z,9.97
2024-01-30T10:57:41.151Z,9.97
2024-01-30T11:00:13.072Z,8.90
2024-01-30T11:02:43.470Z,9.73
2024-01-30T11:05:14.130Z,9.60
2024-01-30T11:07:43.481Z,9.93
2024-01-30T11:10:16.413Z,9.40
2024-01-30T11:12:47.249Z,9.13
2024-01-30T11:15:18.468Z,9.47
2024-01-30T11:17:52.577Z,10.37
2024-01-30T11:20:27.636Z,9.70
2024-01-30T11:22:58.492Z,9.57
2024-01-30T11:25:28.184Z,9.23
2024-01-30T11:27:58.085Z,9.97
2024-01-30T11:30:28.017Z,9.40
2024-01-30T11:33:07.858Z,10.17
2024-01-30T11:35:40.309Z,9.40
2024-01-30T11:38:10.471Z,9.87
2024-01-30T11:40:40.864Z,10.23
2024-01-30T11:43:11.099Z,9.87
2024-01-30T11:45:40.467Z,9.33
2024-01-30T11:48:11.765Z,9.73
2024-01-30T11:50:42.809Z,9.90
2024-01-30T11:53:11.749Z,10.00
2024-01-30T11:55:40.476Z,9.13
2024-01-30T11:58:09.554Z,9.33
2024-01-30T12:00:38.181Z,9.27
2024-01-30T12:03:08.258Z,9.83
2024-01-30T12:05:37.617Z,9.63
2024-01-30T12:08:08.486Z,9.23
2024-01-30T12:10:37.089Z,9.13
2024-01-30T12:13:06.228Z,9.33
2024-01-30T12:15:34.964Z,9.60
2024-01-30T12:18:10.593Z,9.60
2024-01-30T12:20:39.120Z,9.93
2024-01-30T12:23:09.068Z,9.87
2024-01-30T12:25:38.615Z,10.67
2024-01-30T12:28:07.541Z,10.00
2024-01-30T12:30:37.957Z,10.20
2024-01-30T12:33:09.504Z,9.97
2024-01-30T12:35:43.847Z,9.30
2024-01-30T12:38:18.923Z,9.10
2024-01-30T12:40:48.014Z,9.97
2024-01-30T12:43:24.640Z,9.30
2024-01-30T12:46:02.044Z,9.43
2024-01-30T12:48:31.603Z,9.13
2024-01-30T12:51:00.250Z,8.97
2024-01-30T12:53:30.220Z,7.87
2024-01-30T12:55:58.762Z,8.40
2024-01-30T12:58:27.620Z,8.80
2024-01-30T13:00:56.930Z,8.63
2024-01-30T13:03:25.801Z,8.43
2024-01-30T13:05:54.375Z,8.13
2024-01-30T13:08:23.473Z,8.67
2024-01-30T13:10:53.854Z,8.90
2024-01-30T13:13:22.464Z,9.17
2024-01-30T13:15:51.463Z,9.17
2024-01-30T13:18:20.255Z,9.90
2024-01-30T13:20:48.900Z,9.37
2024-01-30T13:23:17.438Z,9.00
2024-01-30T13:25:45.937Z,9.30
2024-01-30T13:28:15.879Z,9.40
2024-01-30T13:30:44.421Z,9.30
2024-01-30T13:33:13.252Z,9.23
2024-01-30T13:35:41.844Z,12.13
2024-01-30T13:38:10.337Z,9.87
2024-01-30T13:40:38.898Z,9.47
2024-01-30T13:43:07.502Z,9.37
2024-01-30T13:45:37.409Z,10.27
2024-01-30T13:48:06.377Z,9.50
2024-01-30T13:50:35.265Z,9.17
2024-01-30T13:53:04.692Z,9.60
2024-01-30T13:55:33.302Z,9.07
2024-01-30T13:58:02.600Z,9.43
2024-01-30T14:00:31.163Z,9.23
2024-01-30T14:03:01.244Z,9.33
2024-01-30T14:05:30.603Z,9.20
2024-01-30T14:07:59.806Z,9.93
2024-01-30T14:10:28.724Z,10.50
2024-01-30T14:12:57.656Z,10.97
2024-01-30T14:15:29.096Z,10.77
2024-01-30T14:18:00.362Z,10.33
2024-01-30T14:20:29.117Z,11.10
2024-01-30T14:22:57.953Z,10.63
2024-01-30T14:25:26.814Z,9.97
2024-01-30T14:27:55.916Z,9.40
2024-01-30T14:30:24.690Z,10.10
2024-01-30T14:32:53.442Z,9.40
2024-01-30T14:35:23.784Z,10.47
2024-01-30T14:37:52.398Z,9.40
2024-01-30T14:40:21.541Z,10.13
2024-01-30T14:42:50.267Z,10.40
2024-01-30T14:45:18.952Z,10.83
2024-01-30T14:47:47.933Z,9.90
2024-01-30T14:50:17.799Z,10.20
2024-01-30T14:52:47.735Z,10.90
2024-01-30T14:55:16.619Z,9.93
2024-01-30T14:57:46.473Z,10.87
2024-01-30T15:00:16.872Z,10.03
2024-01-30T15:02:47.350Z,10.60
2024-01-30T15:05:16.054Z,10.07
2024-01-30T15:07:44.918Z,10.50
2024-01-30T15:10:14.952Z,10.60
2024-01-30T15:12:43.598Z,10.73
2024-01-30T15:15:12.315Z,10.10
2024-01-30T15:17:41.451Z,9.67
2024-01-30T15:20:10.879Z,10.37
2024-01-30T15:22:41.364Z,10.50
2024-01-30T15:25:09.946Z,10.93
2024-01-30T15:27:40.674Z,10.00
2024-01-30T15:30:10.024Z,10.50
2024-01-30T15:32:38.772Z,9.57
2024-01-30T15:35:09.092Z,9.47
2024-01-30T15:37:37.907Z,10.87
2024-01-30T15:40:09.683Z,10.03
2024-01-30T15:42:39.616Z,10.47
2024-01-30T15:45:08.477Z,10.73
2024-01-30T15:47:37.783Z,10.23
2024-01-30T15:50:07.408Z,10.20
2024-01-30T15:52:36.091Z,10.97
2024-01-30T15:55:04.921Z,51.33
2024-01-30T15:57:33.857Z,17.67
2024-01-30T16:00:04.605Z,15.33
2024-01-30T16:02:33.616Z,12.23
2024-01-30T16:05:03.681Z,11.83
2024-01-30T16:07:33.945Z,16.53
2024-01-30T16:10:02.966Z,10.10
2024-01-30T16:12:31.564Z,11.07
2024-01-30T16:15:00.069Z,11.03
2024-01-30T16:17:32.683Z,11.40
2024-01-30T16:20:03.038Z,15.47
2024-01-30T16:22:31.689Z,12.73
2024-01-30T16:25:00.629Z,11.77
2024-01-30T16:27:29.449Z,11.80
2024-01-30T16:29:57.968Z,11.03
2024-01-30T16:32:26.615Z,12.03
2024-01-30T16:34:56.821Z,11.80
2024-01-30T16:37:26.269Z,10.43
2024-01-30T16:39:55.015Z,10.80
2024-01-30T16:42:23.679Z,11.87
2024-01-30T16:44:52.231Z,11.33
2024-01-30T16:47:21.454Z,11.00
2024-01-30T16:49:50.194Z,11.07
2024-01-30T16:52:21.025Z,10.73
2024-01-30T16:54:49.694Z,11.07
2024-01-30T16:57:18.244Z,11.40
2024-01-30T16:59:46.812Z,11.60
2024-01-30T17:02:15.829Z,11.67
2024-01-30T17:04:44.551Z,11.87
2024-01-30T17:07:13.202Z,11.60
2024-01-30T17:09:43.484Z,11.87
2024-01-30T17:12:14.216Z,10.50
2024-01-30T17:14:43.422Z,12.20
2024-01-30T17:17:13.951Z,13.33
2024-01-30T17:19:43.167Z,15.80
2024-01-30T17:22:12.304Z,17.53
2024-01-30T17:24:49.698Z,18.90
2024-01-30T17:27:19.954Z,13.17
2024-01-30T17:29:48.828Z,16.63
2024-01-30T17:32:17.425Z,16.73
2024-01-30T17:34:46.102Z,17.23
2024-01-30T17:37:14.813Z,14.97
2024-01-30T17:39:45.574Z,14.80
2024-01-30T17:42:14.182Z,15.90
2024-01-30T17:44:43.581Z,18.80
2024-01-30T17:47:12.170Z,23.73
2024-01-30T17:49:40.821Z,19.57
2024-01-30T17:52:09.891Z,17.37
2024-01-30T17:54:38.557Z,16.30
2024-01-30T17:57:08.528Z,17.87
2024-01-30T17:59:37.744Z,15.27
2024-01-30T18:02:06.592Z,14.23
2024-01-30T18:04:35.690Z,13.77
2024-01-30T18:07:04.513Z,13.50
2024-01-30T18:09:33.122Z,14.00
2024-01-30T18:12:01.844Z,13.37
2024-01-30T18:14:31.792Z,13.03
2024-01-30T18:17:00.336Z,13.70
2024-01-30T18:19:28.946Z,13.50
2024-01-30T18:21:57.598Z,13.13
2024-01-30T18:24:28.156Z,13.97
2024-01-30T18:26:57.065Z,13.53
2024-01-30T18:29:26.428Z,14.47
2024-01-30T18:31:56.358Z,13.20
2024-01-30T18:34:25.234Z,13.53
2024-01-30T18:36:53.915Z,12.07
2024-01-30T18:39:22.508Z,12.77
2024-01-30T18:41:51.038Z,12.73
2024-01-30T18:44:19.614Z,13.23
2024-01-30T18:46:48.677Z,14.00
2024-01-30T18:49:18.789Z,13.80
2024-01-30T18:51:52.970Z,13.53
2024-01-30T18:54:24.710Z,12.67
2024-01-30T18:56:54.845Z,12.30
2024-01-30T18:59:23.518Z,12.97
2024-01-30T19:01:52.210Z,14.47
2024-01-30T19:04:22.568Z,12.10
2024-01-30T19:06:53.156Z,9.63
2024-01-30T19:09:23.616Z,9.17
2024-01-30T19:11:52.417Z,7.33
2024-01-30T19:14:23.684Z,7.00
2024-01-30T19:16:52.194Z,6.87
2024-01-30T19:19:22.159Z,7.27
2024-01-30T19:21:50.738Z,7.60
2024-01-30T19:24:19.270Z,6.40
2024-01-30T19:26:49.160Z,6.60
2024-01-30T19:29:17.768Z,6.10
2024-01-30T19:31:46.322Z,5.47
2024-01-30T19:34:14.999Z,5.67
2024-01-30T19:36:44.892Z,4.70
2024-01-30T19:39:14.385Z,5.87
2024-01-30T19:41:45.034Z,5.47
2024-01-30T19:44:13.902Z,5.73
2024-01-30T19:46:42.410Z,7.07
2024-01-30T19:49:11.081Z,5.20
2024-01-30T19:51:39.805Z,5.23
2024-01-30T19:54:13.926Z,5.20
2024-01-30T19:56:42.462Z,4.60
2024-01-30T19:59:11.182Z,4.67
2024-01-30T20:01:39.936Z,4.47
2024-01-30T20:04:08.675Z,4.40
2024-01-30T20:06:37.287Z,4.13
2024-01-30T20:09:05.872Z,4.13
2024-01-30T20:11:35.796Z,4.17
2024-01-30T20:14:04.493Z,3.93
2024-01-30T20:16:38.756Z,4.07
2024-01-30T20:19:08.862Z,4.40
2024-01-30T20:21:38.148Z,4.60
2024-01-30T20:24:07.827Z,3.90
2024-01-30T20:26:37.780Z,3.70
2024-01-30T20:29:06.331Z,4.60
2024-01-30T20:31:34.976Z,3.90
2024-01-30T20:34:03.867Z,3.23
2024-01-30T20:36:32.430Z,4.30
2024-01-30T20:39:00.955Z,4.20
2024-01-30T20:41:29.512Z,4.13
2024-01-30T20:43:59.334Z,4.47
2024-01-30T20:46:27.875Z,4.20
2024-01-30T20:48:56.562Z,5.10
2024-01-30T20:51:25.253Z,4.07
2024-01-30T20:53:53.752Z,5.30
2024-01-30T20:56:22.290Z,5.63
2024-01-30T20:58:51.148Z,3.90
2024-01-30T21:01:21.411Z,4.13
2024-01-30T21:03:49.983Z,5.47
2024-01-30T21:06:18.549Z,5.63
2024-01-30T21:08:47.153Z,4.87
2024-01-30T21:11:15.695Z,5.27
2024-01-30T21:13:44.172Z,5.07
2024-01-30T21:16:13.411Z,4.80
2024-01-30T21:18:44.189Z,3.80
2024-01-30T21:21:13.210Z,4.30
2024-01-30T21:23:41.878Z,4.03
2024-01-30T21:26:10.717Z,3.83
2024-01-30T21:28:39.307Z,4.33
2024-01-30T21:31:10.244Z,3.73
2024-01-30T21:33:38.875Z,4.50
2024-01-30T21:36:09.493Z,5.17
2024-01-30T21:38:38.046Z,4.60
2024-01-30T21:41:06.998Z,4.70
2024-01-30T21:43:35.618Z,5.33
2024-01-30T21:46:04.654Z,4.40
2024-01-30T21:48:33.245Z,4.73
2024-01-30T21:51:02.083Z,4.87
2024-01-30T21:53:32.365Z,4.80
2024-01-30T21:56:00.862Z,5.13
2024-01-30T21:58:29.383Z,4.77
2024-01-30T22:00:57.981Z,4.90
2024-01-30T22:03:26.565Z,5.10
2024-01-30T22:05:55.077Z,5.33
2024-01-30T22:08:23.559Z,5.50
2024-01-30T22:10:53.619Z,5.60
2024-01-30T22:13:23.440Z,5.20
2024-01-30T22:15:52.117Z,5.63
2024-01-30T22:18:20.825Z,5.57
2024-01-30T22:20:49.406Z,5.63
2024-01-30T22:23:17.933Z,5.73
2024-01-30T22:25:46.502Z,5.50
2024-01-30T22:28:16.469Z,5.90
2024-01-30T22:30:45.074Z,5.80
2024-01-30T22:33:13.729Z,6.57
2024-01-30T22:35:42.487Z,6.03
2024-01-30T22:38:11.137Z,6.63
2024-01-30T22:40:39.776Z,5.57
2024-01-30T22:43:08.541Z,5.90
2024-01-30T22:45:38.437Z,6.33
2024-01-30T22:48:07.773Z,5.53
2024-01-30T22:50:36.273Z,5.30
2024-01-30T22:53:04.881Z,4.83
2024-01-30T22:55:33.551Z,4.70
2024-01-30T22:58:02.096Z,4.20
2024-01-30T23:00:30.608Z,4.17
2024-01-30T23:03:00.508Z,4.00
2024-01-30T23:05:31.173Z,4.03
2024-01-30T23:07:59.688Z,4.17
2024-01-30T23:10:28.256Z,3.90
2024-01-30T23:12:56.755Z,3.90
2024-01-30T23:15:25.400Z,3.93
2024-01-30T23:17:54.021Z,4.33
2024-01-30T23:20:23.912Z,3.80
2024-01-30T23:22:52.658Z,3.97
2024-01-30T23:25:21.171Z,4.50
2024-01-30T23:27:49.674Z,4.40
2024-01-30T23:30:18.613Z,5.00
2024-01-30T23:32:47.572Z,4.50
2024-01-30T23:35:16.305Z,4.40
2024-01-30T23:37:46.258Z,4.70
2024-01-30T23:40:15.423Z,4.60
2024-01-30T23:42:44.281Z,4.83
2024-01-30T23:45:12.848Z,5.00
2024-01-30T23:47:41.455Z,4.70
2024-01-30T23:50:10.708Z,5.07
2024-01-30T23:52:43.532Z,4.80
2024-01-30T23:55:13.684Z,4.77
2024-01-30T23:57:42.195Z,4.53
